createdAt,value
2018-12-11T00:00:18.084Z,73.03
2018-12-11T00:02:47.061Z,72.89
2018-12-11T00:05:16.087Z,73.54
2018-12-11T00:07:45.172Z,74.57
2018-12-11T00:10:14.206Z,73.44
2018-12-11T00:12:43.232Z,74.23
2018-12-11T00:15:12.428Z,73.68
2018-12-11T00:17:41.517Z,73.47
2018-12-11T00:20:10.612Z,72.08
2018-12-11T00:22:39.941Z,72.22
2018-12-11T00:25:09.066Z,71.70
2018-12-11T00:27:38.091Z,71.46
2018-12-11T00:30:07.312Z,71.16
2018-12-11T00:32:36.402Z,71.33
2018-12-11T00:35:05.971Z,69.59
2018-12-11T00:37:35.063Z,70.26
2018-12-11T00:40:04.216Z,67.45
2018-12-11T00:42:33.404Z,67.81
2018-12-11T00:45:02.595Z,68.05
2018-12-11T00:47:31.702Z,67.33
2018-12-11T00:50:00.750Z,66.73
2018-12-11T00:52:29.849Z,67.69
2018-12-11T00:54:58.867Z,67.46
2018-12-11T00:57:27.944Z,65.93
2018-12-11T00:59:57.267Z,66.34
2018-12-11T01:02:26.295Z,65.77
2018-12-11T01:04:55.269Z,65.29
2018-12-11T01:07:24.333Z,65.24
2018-12-11T01:09:53.318Z,66.72
2018-12-11T01:12:22.334Z,65.13
2018-12-11T01:14:51.431Z,66.33
2018-12-11T01:17:20.529Z,65.58
2018-12-11T01:19:49.590Z,64.89
2018-12-11T01:22:18.722Z,64.15
2018-12-11T01:24:47.772Z,63.49
2018-12-11T01:27:16.813Z,64.29
2018-12-11T01:29:46.252Z,62.78
2018-12-11T01:32:15.294Z,63.65
2018-12-11T01:34:44.341Z,63.98
2018-12-11T01:37:13.704Z,60.92
2018-12-11T01:39:42.763Z,61.83
2018-12-11T01:42:11.851Z,61.53
2018-12-11T01:44:40.977Z,62.25
2018-12-11T01:47:10.035Z,62.14
2018-12-11T01:49:39.093Z,61.33
2018-12-11T01:52:08.231Z,61.24
2018-12-11T01:54:37.287Z,60.34
2018-12-11T01:57:06.357Z,60.03
2018-12-11T01:59:35.410Z,60.02
2018-12-11T02:02:04.588Z,59.19
2018-12-11T02:04:33.601Z,59.33
2018-12-11T02:07:02.683Z,58.95
2018-12-11T02:09:31.699Z,57.94
2018-12-11T02:12:00.783Z,57.99
2018-12-11T02:14:30.139Z,57.82
2018-12-11T02:16:59.173Z,57.80
2018-12-11T02:19:28.226Z,57.30
2018-12-11T02:21:57.343Z,56.94
2018-12-11T02:24:26.411Z,56.25
2018-12-11T02:26:55.414Z,56.09
2018-12-11T02:29:24.754Z,56.20
2018-12-11T02:31:53.805Z,55.59
2018-12-11T02:34:22.883Z,55.09
2018-12-11T02:36:51.984Z,56.25
2018-12-11T02:39:21.031Z,54.91
2018-12-11T02:41:50.094Z,55.64
2018-12-11T02:44:19.168Z,55.16
2018-12-11T02:46:48.250Z,55.72
2018-12-11T02:49:17.391Z,56.04
2018-12-11T02:51:46.769Z,54.91
2018-12-11T02:54:15.767Z,55.60
2018-12-11T02:56:44.762Z,55.56
2018-12-11T02:59:13.855Z,54.99
2018-12-11T03:01:42.891Z,55.31
2018-12-11T03:04:11.966Z,55.09
2018-12-11T03:06:41.329Z,56.00
2018-12-11T03:09:10.566Z,54.77
2018-12-11T03:11:39.586Z,55.69
2018-12-11T03:14:09.142Z,55.37
2018-12-11T03:16:38.153Z,55.54
2018-12-11T03:19:07.197Z,55.46
2018-12-11T03:21:36.215Z,55.20
2018-12-11T03:24:05.307Z,55.76
2018-12-11T03:26:34.330Z,55.06
2018-12-11T03:29:03.882Z,55.33
2018-12-11T03:31:33.003Z,54.96
2018-12-11T03:34:02.043Z,55.19
2018-12-11T03:36:31.178Z,55.08
2018-12-11T03:39:00.222Z,54.49
2018-12-11T03:41:29.330Z,53.75
2018-12-11T03:43:58.505Z,54.32
2018-12-11T03:46:27.570Z,54.07
2018-12-11T03:48:56.670Z,54.02
2018-12-11T03:51:25.768Z,53.46
2018-12-11T03:53:54.810Z,52.97
2018-12-11T03:56:23.862Z,51.41
2018-12-11T03:58:52.895Z,52.53
2018-12-11T04:01:21.964Z,52.19
2018-12-11T04:03:50.981Z,51.98
2018-12-11T04:06:20.057Z,51.88
2018-12-11T04:08:49.114Z,52.63
2018-12-11T04:11:18.198Z,52.44
2018-12-11T04:13:47.206Z,51.52
2018-12-11T04:16:16.300Z,51.05
2018-12-11T04:18:45.322Z,52.07
2018-12-11T04:21:14.358Z,50.74
2018-12-11T04:23:43.526Z,51.18
2018-12-11T04:26:12.590Z,51.90
2018-12-11T04:28:41.619Z,52.04
2018-12-11T04:31:10.699Z,51.39
2018-12-11T04:33:39.729Z,51.30
2018-12-11T04:36:08.744Z,52.51
2018-12-11T04:38:37.827Z,52.71
2018-12-11T04:41:07.488Z,53.79
2018-12-11T04:43:36.599Z,54.08
2018-12-11T04:46:05.743Z,54.57
2018-12-11T04:48:34.726Z,55.32
2018-12-11T04:51:03.773Z,54.75
2018-12-11T04:53:32.791Z,55.49
2018-12-11T04:56:01.921Z,55.36
2018-12-11T04:58:30.988Z,55.59
2018-12-11T05:01:00.067Z,55.40
2018-12-11T05:03:29.090Z,56.19
2018-12-11T05:05:58.086Z,56.44
2018-12-11T05:08:27.302Z,56.32
2018-12-11T05:10:56.295Z,56.13
2018-12-11T05:13:25.326Z,56.42
2018-12-11T05:15:54.388Z,55.32
2018-12-11T05:18:23.434Z,54.91
2018-12-11T05:20:52.525Z,54.84
2018-12-11T05:23:21.654Z,55.24
2018-12-11T05:25:50.770Z,56.08
2018-12-11T05:28:19.787Z,55.56
2018-12-11T05:30:48.820Z,54.80
2018-12-11T05:33:17.946Z,54.77
2018-12-11T05:35:47.140Z,54.62
2018-12-11T05:38:16.242Z,54.47
2018-12-11T05:40:45.278Z,54.14
2018-12-11T05:43:14.396Z,69.67
2018-12-11T05:45:43.456Z,67.27
2018-12-11T05:48:12.646Z,53.02
2018-12-11T05:50:41.722Z,53.35
2018-12-11T05:53:10.854Z,53.75
2018-12-11T05:55:39.990Z,54.68
2018-12-11T05:58:09.077Z,54.02
2018-12-11T06:00:38.235Z,53.47
2018-12-11T06:03:07.282Z,53.56
2018-12-11T06:05:36.367Z,53.29
2018-12-11T06:08:05.468Z,53.28
2018-12-11T06:10:34.478Z,53.48
2018-12-11T06:13:03.510Z,53.69
2018-12-11T06:15:32.549Z,53.98
2018-12-11T06:18:01.517Z,53.06
2018-12-11T06:20:30.671Z,53.71
2018-12-11T06:22:59.749Z,53.51
2018-12-11T06:25:28.780Z,52.92
2018-12-11T06:27:57.883Z,53.07
2018-12-11T06:30:26.971Z,53.86
2018-12-11T06:32:56.121Z,53.39
2018-12-11T06:35:25.172Z,53.44
2018-12-11T06:37:55.059Z,53.88
2018-12-11T06:40:24.174Z,54.38
2018-12-11T06:42:53.268Z,54.49
2018-12-11T06:45:22.312Z,54.79
2018-12-11T06:47:51.350Z,54.20
2018-12-11T06:50:20.413Z,54.70
2018-12-11T06:52:49.505Z,54.65
2018-12-11T06:55:18.579Z,54.02
2018-12-11T06:57:47.703Z,53.96
2018-12-11T07:00:16.703Z,52.93
2018-12-11T07:02:45.811Z,53.43
2018-12-11T07:05:14.902Z,53.62
2018-12-11T07:07:44.056Z,53.14
2018-12-11T07:10:14.214Z,53.65
2018-12-11T07:12:43.335Z,54.06
2018-12-11T07:15:12.379Z,53.79
2018-12-11T07:17:41.435Z,53.31
2018-12-11T07:20:10.430Z,53.58
2018-12-11T07:22:39.684Z,53.03
2018-12-11T07:25:08.691Z,52.91
2018-12-11T07:27:37.880Z,52.00
2018-12-11T07:30:07.919Z,52.19
2018-12-11T07:32:37.185Z,51.16
2018-12-11T07:35:06.212Z,51.35
2018-12-11T07:37:35.752Z,51.12
2018-12-11T07:40:04.854Z,50.79
2018-12-11T07:42:33.922Z,56.06
2018-12-11T07:45:06.106Z,50.65
2018-12-11T07:47:36.195Z,50.34
2018-12-11T07:50:05.387Z,50.52
2018-12-11T07:52:34.506Z,51.04
2018-12-11T07:55:03.567Z,51.35
2018-12-11T07:57:32.645Z,52.25
2018-12-11T08:00:01.706Z,51.29
2018-12-11T08:02:30.772Z,51.39
2018-12-11T08:04:59.739Z,51.08
2018-12-11T08:07:29.802Z,51.61
2018-12-11T08:09:58.841Z,51.49
2018-12-11T08:12:27.867Z,51.02
2018-12-11T08:14:56.928Z,52.19
2018-12-11T08:17:27.495Z,51.23
2018-12-11T08:19:57.548Z,51.07
2018-12-11T08:22:26.502Z,50.13
2018-12-11T08:24:55.467Z,51.07
2018-12-11T08:27:24.548Z,51.05
2018-12-11T08:29:53.541Z,51.07
2018-12-11T08:32:22.532Z,51.05
2018-12-11T08:34:52.578Z,51.49
2018-12-11T08:37:20.673Z,49.44
2018-12-11T08:39:49.647Z,50.65
2018-12-11T08:42:18.985Z,49.87
2018-12-11T08:44:51.144Z,49.22
2018-12-11T08:47:17.063Z,50.44
2018-12-11T08:49:46.143Z,50.56
2018-12-11T08:52:15.103Z,49.58
2018-12-11T08:54:44.103Z,50.64
2018-12-11T08:57:13.234Z,49.77
2018-12-11T08:59:42.218Z,50.95
2018-12-11T09:02:11.897Z,50.19
2018-12-11T09:04:41.435Z,49.80
2018-12-11T09:07:10.086Z,49.01
2018-12-11T09:09:39.383Z,50.14
2018-12-11T09:12:09.499Z,50.58
2018-12-11T09:14:38.672Z,51.14
2018-12-11T09:17:10.316Z,50.38
2018-12-11T09:19:41.817Z,49.78
2018-12-11T09:24:58.461Z,49.43
2018-12-11T09:27:31.251Z,49.45
2018-12-11T09:30:03.998Z,49.91
2018-12-11T09:32:34.299Z,48.76
2018-12-11T09:35:04.453Z,48.66
2018-12-11T09:37:36.704Z,49.81
2018-12-11T09:40:09.329Z,49.14
2018-12-11T09:42:55.576Z,49.10
2018-12-11T09:45:28.539Z,50.19
2018-12-11T09:48:02.779Z,47.15
2018-12-11T09:50:37.271Z,48.17
2018-12-11T09:53:12.381Z,46.43
2018-12-11T09:55:41.733Z,46.96
2018-12-11T09:58:14.608Z,46.38
2018-12-11T10:00:46.056Z,46.12
2018-12-11T10:03:15.354Z,46.65
2018-12-11T10:05:45.813Z,45.77
2018-12-11T10:08:15.026Z,46.44
2018-12-11T10:10:44.193Z,47.98
2018-12-11T10:13:13.390Z,46.92
2018-12-11T10:15:44.435Z,46.47
2018-12-11T10:18:13.586Z,46.70
2018-12-11T10:20:43.784Z,44.44
2018-12-11T10:23:14.230Z,45.98
2018-12-11T10:25:43.463Z,44.50
2018-12-11T10:28:12.768Z,44.24
2018-12-11T10:30:48.655Z,42.66
2018-12-11T10:33:18.897Z,43.28
2018-12-11T10:35:49.385Z,44.54
2018-12-11T10:38:21.260Z,43.53
2018-12-11T10:40:53.614Z,51.76
2018-12-11T10:43:23.129Z,42.88
2018-12-11T10:45:52.480Z,43.56
2018-12-11T10:48:21.876Z,43.11
2018-12-11T10:50:51.556Z,42.83
2018-12-11T10:53:20.841Z,42.33
2018-12-11T10:55:50.008Z,43.45
2018-12-11T10:58:19.470Z,42.50
2018-12-11T11:00:53.601Z,42.30
2018-12-11T11:03:22.655Z,44.24
2018-12-11T11:05:51.840Z,42.38
2018-12-11T11:08:21.143Z,41.69
2018-12-11T11:10:50.358Z,43.17
2018-12-11T11:13:19.480Z,43.79
2018-12-11T11:15:48.689Z,42.57
2018-12-11T11:18:17.728Z,42.00
2018-12-11T11:20:46.694Z,42.96
2018-12-11T11:23:15.878Z,43.07
2018-12-11T11:25:44.907Z,41.87
2018-12-11T11:28:13.912Z,40.74
2018-12-11T11:30:42.926Z,40.21
2018-12-11T11:33:11.947Z,40.81
2018-12-11T11:35:40.952Z,40.83
2018-12-11T11:38:10.034Z,41.81
2018-12-11T11:40:39.019Z,40.26
2018-12-11T11:43:07.981Z,40.47
2018-12-11T11:45:37.368Z,41.59
2018-12-11T11:48:06.348Z,39.41
2018-12-11T11:50:35.439Z,40.40
2018-12-11T11:53:04.538Z,41.35
2018-12-11T11:55:33.568Z,40.75
2018-12-11T11:58:02.549Z,39.40
2018-12-11T12:00:31.954Z,40.75
2018-12-11T12:03:00.922Z,39.17
2018-12-11T12:05:29.917Z,38.47
2018-12-11T12:07:59.228Z,39.99
2018-12-11T12:10:28.196Z,41.28
2018-12-11T12:13:01.264Z,40.24
2018-12-11T12:15:30.223Z,40.09
2018-12-11T12:17:59.177Z,40.10
2018-12-11T12:20:28.307Z,40.18
2018-12-11T12:22:57.372Z,42.05
2018-12-11T12:25:26.371Z,42.19
2018-12-11T12:27:55.400Z,41.89
2018-12-11T12:30:24.451Z,42.72
2018-12-11T12:32:53.413Z,41.83
2018-12-11T12:35:22.435Z,41.38
2018-12-11T12:37:51.432Z,42.09
2018-12-11T12:40:20.426Z,40.57
2018-12-11T12:42:49.423Z,40.71
2018-12-11T12:45:18.472Z,41.62
2018-12-11T12:47:47.516Z,42.21
2018-12-11T12:50:16.520Z,41.53
2018-12-11T12:52:45.427Z,40.73
2018-12-11T12:55:14.383Z,40.25
2018-12-11T12:57:43.642Z,39.96
2018-12-11T13:00:12.671Z,40.34
2018-12-11T13:02:41.614Z,40.62
2018-12-11T13:05:10.994Z,41.22
2018-12-11T13:07:40.001Z,41.62
2018-12-11T13:10:09.111Z,41.95
2018-12-11T13:12:38.222Z,42.30
2018-12-11T13:15:08.200Z,44.19
2018-12-11T13:17:37.186Z,43.13
2018-12-11T13:20:06.356Z,43.98
2018-12-11T13:22:35.353Z,43.28
2018-12-11T13:25:04.424Z,43.75
2018-12-11T13:27:33.477Z,43.30
2018-12-11T13:30:02.477Z,44.98
2018-12-11T13:32:31.408Z,43.82
2018-12-11T13:35:00.413Z,42.82
2018-12-11T13:37:29.389Z,42.92
2018-12-11T13:39:58.405Z,43.80
2018-12-11T13:42:27.463Z,44.80
2018-12-11T13:44:56.556Z,45.56
2018-12-11T13:47:25.698Z,44.88
2018-12-11T13:49:54.762Z,45.46
2018-12-11T13:52:24.016Z,45.44
2018-12-11T13:54:53.092Z,45.34
2018-12-11T13:57:22.161Z,45.58
2018-12-11T13:59:51.386Z,46.44
2018-12-11T14:02:20.604Z,46.90
2018-12-11T14:04:50.154Z,45.46
2018-12-11T14:07:19.179Z,45.52
2018-12-11T14:09:48.285Z,44.97
2018-12-11T14:12:17.443Z,45.64
2018-12-11T14:14:46.467Z,45.41
2018-12-11T14:17:15.516Z,45.96
2018-12-11T14:19:44.643Z,45.85
2018-12-11T14:22:13.716Z,45.89
2018-12-11T14:24:42.757Z,46.46
2018-12-11T14:27:11.941Z,46.33
2018-12-11T14:29:41.029Z,46.71
2018-12-11T14:32:10.061Z,47.11
2018-12-11T14:34:39.522Z,46.34
2018-12-11T14:37:08.640Z,45.74
2018-12-11T14:39:37.655Z,45.21
2018-12-11T14:42:07.516Z,45.65
2018-12-11T14:44:36.556Z,45.20
2018-12-11T14:47:06.786Z,44.62
2018-12-11T14:49:36.157Z,45.27
2018-12-11T14:52:05.257Z,45.74
2018-12-11T14:54:34.226Z,46.09
2018-12-11T14:57:03.579Z,45.64
2018-12-11T14:59:32.540Z,45.20
2018-12-11T15:02:01.532Z,45.46
2018-12-11T15:04:30.530Z,45.52
2018-12-11T15:06:59.572Z,45.08
2018-12-11T15:09:33.663Z,45.08
2018-12-11T15:12:02.619Z,45.68
2018-12-11T15:14:31.605Z,45.82
2018-12-11T15:17:00.583Z,45.35
2018-12-11T15:19:29.535Z,45.92
2018-12-11T15:21:58.497Z,45.00
2018-12-11T15:24:27.501Z,44.91
2018-12-11T15:26:56.448Z,45.25
2018-12-11T15:29:25.435Z,45.78
2018-12-11T15:31:54.700Z,46.65
2018-12-11T15:34:23.667Z,46.69
2018-12-11T15:36:52.659Z,46.70
2018-12-11T15:39:21.652Z,47.03
2018-12-11T15:41:50.711Z,46.01
2018-12-11T15:44:19.841Z,46.11
2018-12-11T15:46:48.954Z,46.43
2018-12-11T15:49:18.019Z,46.14
2018-12-11T15:51:46.991Z,46.39
2018-12-11T15:54:16.070Z,45.83
2018-12-11T15:56:45.149Z,45.15
2018-12-11T15:59:14.251Z,43.98
2018-12-11T16:01:43.315Z,44.76
2018-12-11T16:04:12.251Z,44.29
2018-12-11T16:06:41.262Z,43.93
2018-12-11T16:09:12.158Z,44.16
2018-12-11T16:11:41.160Z,44.18
2018-12-11T16:14:10.144Z,44.33
2018-12-11T16:16:39.176Z,44.54
2018-12-11T16:19:08.213Z,44.78
2018-12-11T16:21:37.219Z,45.16
2018-12-11T16:24:06.318Z,45.52
2018-12-11T16:26:35.360Z,44.65
2018-12-11T16:29:04.359Z,44.14
2018-12-11T16:31:33.455Z,43.65
2018-12-11T16:34:02.462Z,43.85
2018-12-11T16:36:31.490Z,44.52
2018-12-11T16:39:00.530Z,44.13
2018-12-11T16:41:29.498Z,43.50
2018-12-11T16:43:58.593Z,44.89
2018-12-11T16:46:27.664Z,45.18
2018-12-11T16:48:56.607Z,46.24
2018-12-11T16:51:25.643Z,46.24
2018-12-11T16:53:54.796Z,61.65
2018-12-11T16:56:23.796Z,46.47
2018-12-11T16:58:52.888Z,45.83
2018-12-11T17:01:22.340Z,46.96
2018-12-11T17:03:51.456Z,47.09
2018-12-11T17:06:20.458Z,48.36
2018-12-11T17:08:49.779Z,47.89
2018-12-11T17:11:18.814Z,48.74
2018-12-11T17:13:47.805Z,48.33
2018-12-11T17:16:17.078Z,48.40
2018-12-11T17:18:46.342Z,48.65
2018-12-11T17:21:15.376Z,48.73
2018-12-11T17:23:44.707Z,48.83
2018-12-11T17:26:13.867Z,49.12
2018-12-11T17:28:43.008Z,49.12
2018-12-11T17:31:12.766Z,48.96
2018-12-11T17:33:42.117Z,48.11
2018-12-11T17:36:11.398Z,47.96
2018-12-11T17:38:40.868Z,46.76
2018-12-11T17:41:10.277Z,47.81
2018-12-11T17:43:39.610Z,46.14
2018-12-11T17:46:09.161Z,46.82
2018-12-11T17:48:41.574Z,46.96
2018-12-11T17:51:07.522Z,46.49
2018-12-11T17:53:36.755Z,47.97
2018-12-11T17:56:05.878Z,47.26
2018-12-11T17:58:34.914Z,47.28
2018-12-11T18:01:04.080Z,47.86
2018-12-11T18:03:33.548Z,47.83
2018-12-11T18:06:02.588Z,48.29
2018-12-11T18:08:31.815Z,48.03
2018-12-11T18:11:00.882Z,47.66
2018-12-11T18:13:30.001Z,47.73
2018-12-11T18:15:59.047Z,48.77
2018-12-11T18:18:28.044Z,49.33
2018-12-11T18:20:57.159Z,49.08
2018-12-11T18:23:26.585Z,49.86
2018-12-11T18:25:55.885Z,49.68
2018-12-11T18:28:25.188Z,48.88
2018-12-11T18:30:54.558Z,49.11
2018-12-11T18:33:23.729Z,48.28
2018-12-11T18:35:52.753Z,48.51
2018-12-11T18:38:22.080Z,48.23
2018-12-11T18:40:51.375Z,47.75
2018-12-11T18:43:20.467Z,47.39
2018-12-11T18:45:49.508Z,48.21
2018-12-11T18:48:18.473Z,46.68
2018-12-11T18:50:47.524Z,46.00
2018-12-11T18:53:16.933Z,45.96
2018-12-11T18:55:45.993Z,45.55
2018-12-11T18:58:15.410Z,46.81
2018-12-11T19:00:44.500Z,46.57
2018-12-11T19:03:13.515Z,47.45
2018-12-11T19:05:42.476Z,47.09
2018-12-11T19:08:11.845Z,47.55
2018-12-11T19:10:40.915Z,47.52
2018-12-11T19:13:09.920Z,47.04
2018-12-11T19:15:39.192Z,47.03
2018-12-11T19:18:08.289Z,48.15
2018-12-11T19:20:37.314Z,48.14
2018-12-11T19:23:18.676Z,48.79
2018-12-11T19:25:47.698Z,48.11
2018-12-11T19:28:16.734Z,48.33
2018-12-11T19:30:45.860Z,48.33
2018-12-11T19:33:14.878Z,48.61
2018-12-11T19:35:43.905Z,48.77
2018-12-11T19:38:13.237Z,48.86
2018-12-11T19:40:44.018Z,48.60
2018-12-11T19:43:12.603Z,48.51
2018-12-11T19:45:41.694Z,48.55
2018-12-11T19:48:10.700Z,48.55
2018-12-11T19:50:39.744Z,49.19
2018-12-11T19:53:08.839Z,47.88
2018-12-11T19:55:37.940Z,47.82
2018-12-11T19:58:07.020Z,48.03
2018-12-11T20:00:36.254Z,47.99
2018-12-11T20:03:10.530Z,48.60
2018-12-11T20:05:34.456Z,48.79
2018-12-11T20:08:03.588Z,48.31
2018-12-11T20:10:32.758Z,48.96
2018-12-11T20:13:01.922Z,49.16
2018-12-11T20:15:31.094Z,49.59
2018-12-11T20:18:00.422Z,49.34
2018-12-11T20:20:30.655Z,49.70
2018-12-11T20:23:00.681Z,50.19
2018-12-11T20:25:29.886Z,49.92
2018-12-11T20:27:59.067Z,50.28
2018-12-11T20:30:28.408Z,49.30
2018-12-11T20:32:57.875Z,49.97
2018-12-11T20:35:27.176Z,49.89
2018-12-11T20:37:56.543Z,51.01
2018-12-11T20:40:26.478Z,51.10
2018-12-11T20:42:56.247Z,51.93
2018-12-11T20:45:25.955Z,51.78
2018-12-11T20:47:55.168Z,52.08
2018-12-11T20:50:24.411Z,52.05
2018-12-11T20:52:53.695Z,52.31
2018-12-11T20:55:23.151Z,52.14
2018-12-11T20:57:52.467Z,52.02
2018-12-11T21:00:22.587Z,52.44
2018-12-11T21:02:51.934Z,52.35
2018-12-11T21:05:21.242Z,52.02
2018-12-11T21:07:50.749Z,51.67
2018-12-11T21:10:20.084Z,51.34
2018-12-11T21:12:49.351Z,51.74
2018-12-11T21:15:18.751Z,51.56
2018-12-11T21:17:49.848Z,52.41
2018-12-11T21:20:19.122Z,52.19
2018-12-11T21:22:48.682Z,52.39
2018-12-11T21:25:19.141Z,52.77
2018-12-11T21:27:48.619Z,53.28
2018-12-11T21:30:18.196Z,53.45
2018-12-11T21:32:47.554Z,53.52
2018-12-11T21:35:16.880Z,53.37
2018-12-11T21:37:46.469Z,52.59
2018-12-11T21:40:15.949Z,51.41
2018-12-11T21:42:45.316Z,51.47
2018-12-11T21:45:15.019Z,50.89
2018-12-11T21:47:44.784Z,51.32
2018-12-11T21:50:14.299Z,52.03
2018-12-11T21:52:45.225Z,51.04
2018-12-11T21:55:14.553Z,51.22
2018-12-11T21:57:43.784Z,50.74
2018-12-11T22:00:13.349Z,51.30
2018-12-11T22:02:42.645Z,51.01
2018-12-11T22:05:13.013Z,51.18
2018-12-11T22:07:43.210Z,50.06
2018-12-11T22:10:12.426Z,50.00
2018-12-11T22:12:43.061Z,49.93
2018-12-11T22:15:12.441Z,50.27
2018-12-11T22:17:42.024Z,50.57
2018-12-11T22:20:11.267Z,50.33
2018-12-11T22:22:40.494Z,50.48
2018-12-11T22:25:09.772Z,50.20
2018-12-11T22:27:38.975Z,50.14
2018-12-11T22:30:08.401Z,50.82
2018-12-11T22:32:38.159Z,50.55
2018-12-11T22:35:08.128Z,50.48
2018-12-11T22:37:38.052Z,51.17
2018-12-11T22:40:07.566Z,51.40
2018-12-11T22:42:36.879Z,52.06
2018-12-11T22:45:07.015Z,51.41
2018-12-11T22:47:36.316Z,51.53
2018-12-11T22:50:06.214Z,51.62
2018-12-11T22:52:35.654Z,51.35
2018-12-11T22:55:04.805Z,51.50
2018-12-11T22:57:34.101Z,51.44
2018-12-11T23:00:04.008Z,51.95
2018-12-11T23:02:33.871Z,52.14
2018-12-11T23:05:03.297Z,52.47
2018-12-11T23:07:32.455Z,52.37
2018-12-11T23:10:01.670Z,52.90
2018-12-11T23:12:30.710Z,52.92
2018-12-11T23:15:01.019Z,53.67
2018-12-11T23:17:31.085Z,52.78
2018-12-11T23:20:00.487Z,53.23
2018-12-11T23:22:30.804Z,53.31
2018-12-11T23:25:00.170Z,52.84
2018-12-11T23:27:29.204Z,52.09
2018-12-11T23:29:59.808Z,52.44
2018-12-11T23:32:28.851Z,51.82
2018-12-11T23:34:58.249Z,51.12
2018-12-11T23:37:28.256Z,50.62
2018-12-11T23:39:58.310Z,50.65
2018-12-11T23:42:27.962Z,51.10
2018-12-11T23:44:57.262Z,51.24
2018-12-11T23:47:26.357Z,51.31
2018-12-11T23:49:55.474Z,50.17
2018-12-11T23:52:24.655Z,50.36
2018-12-11T23:54:53.946Z,50.59
2018-12-11T23:57:23.141Z,50.64
2018-12-11T23:59:52.560Z,50.77
